Time;durP1;ratioP1;P1;durP2;ratioP2;P2;SDS_P1;SDS_P2;PMS_P1;PMS_P2;Temp;Humidity;BMP_temperature;BMP_pressure;BME280_temperature;BME280_humidity;BME280_pressure;Samples;Min_cycle;Max_cycle;Signal;HPM_P1;HPM_P2
2023/04/28 00:00:25;;;;;;;2.95;2.63;;;18.80;54.50;;;;;;4985614;28;20034;-53
2023/04/28 00:02:51;;;;;;;4.05;1.92;;;18.80;54.50;;;;;;4986182;28;20030;-53
2023/04/28 00:05:17;;;;;;;2.28;1.90;;;18.80;54.50;;;;;;4990226;28;20557;-55
2023/04/28 00:07:42;;;;;;;2.45;1.80;;;18.80;54.50;;;;;;4990404;28;20038;-53
2023/04/28 00:10:08;;;;;;;2.50;2.05;;;18.80;54.50;;;;;;4990735;28;20519;-45
2023/04/28 00:12:34;;;;;;;2.25;1.67;;;18.70;54.50;;;;;;4991001;28;20606;-50
2023/04/28 00:15:00;;;;;;;2.20;2.00;;;18.70;54.50;;;;;;4989427;28;20034;-46
2023/04/28 00:17:25;;;;;;;3.20;2.33;;;18.70;54.60;;;;;;4987867;28;20033;-49
2023/04/28 00:19:51;;;;;;;2.67;2.47;;;18.70;54.60;;;;;;4989237;28;20125;-54
2023/04/28 00:22:17;;;;;;;2.38;2.10;;;18.70;54.50;;;;;;4990050;28;20049;-55
2023/04/28 00:24:43;;;;;;;2.03;1.83;;;18.70;54.50;;;;;;4986136;28;20210;-53
2023/04/28 00:27:09;;;;;;;4.72;2.03;;;18.80;54.40;;;;;;4985311;28;20690;-46
2023/04/28 00:29:35;;;;;;;2.42;2.22;;;19.00;54.10;;;;;;4985061;28;20042;-52
2023/04/28 00:32:01;;;;;;;2.33;1.85;;;19.20;53.80;;;;;;4987336;28;20045;-50
2023/04/28 00:34:28;;;;;;;2.55;1.85;;;19.40;53.40;;;;;;4988284;28;20486;-46
2023/04/28 00:36:54;;;;;;;1.77;1.65;;;19.60;52.90;;;;;;4991283;28;20030;-53
2023/04/28 00:39:21;;;;;;;4.10;2.25;;;19.90;52.40;;;;;;4991150;28;20040;-52
2023/04/28 00:41:47;;;;;;;3.30;2.13;;;20.00;51.80;;;;;;4985792;28;20115;-46
2023/04/28 00:44:12;;;;;;;2.25;2.00;;;20.20;51.40;;;;;;4989958;28;20496;-52
2023/04/28 00:46:38;;;;;;;5.45;1.80;;;20.40;51.00;;;;;;4990526;28;20064;-53
2023/04/28 00:49:04;;;;;;;3.00;1.67;;;20.50;50.70;;;;;;4982952;28;20165;-52
2023/04/28 00:51:32;;;;;;;2.28;1.70;;;20.60;50.50;;;;;;4983655;28;20088;-54
2023/04/28 00:53:58;;;;;;;2.30;1.60;;;20.70;50.30;;;;;;4986244;28;20359;-51
2023/04/28 00:56:26;;;;;;;2.33;1.75;;;20.80;50.30;;;;;;4986295;28;20121;-46
2023/04/28 00:58:52;;;;;;;3.67;2.08;;;20.80;50.10;;;;;;4981754;28;20030;-53
2023/04/28 01:01:18;;;;;;;3.53;2.33;;;20.90;50.00;;;;;;4987987;28;20041;-48
2023/04/28 01:03:43;;;;;;;2.63;1.73;;;20.90;49.90;;;;;;4988261;28;20038;-47
2023/04/28 01:06:09;;;;;;;4.78;1.80;;;20.90;50.00;;;;;;4989588;28;20037;-51
2023/04/28 01:08:37;;;;;;;1.75;1.30;;;20.80;50.00;;;;;;4986337;28;20188;-55
2023/04/28 01:11:03;;;;;;;2.08;1.75;;;20.80;50.10;;;;;;4985265;28;20096;-56
2023/04/28 01:13:28;;;;;;;2.28;1.65;;;20.70;50.30;;;;;;4988802;28;20038;-47
2023/04/28 01:15:57;;;;;;;2.03;1.80;;;20.60;50.50;;;;;;4986150;28;20092;-48
2023/04/28 01:18:23;;;;;;;2.28;1.80;;;20.60;50.70;;;;;;4983030;28;20058;-56
2023/04/28 01:20:48;;;;;;;2.40;2.20;;;20.50;50.80;;;;;;4985352;28;20030;-46
2023/04/28 01:23:15;;;;;;;1.73;1.63;;;20.40;51.10;;;;;;4984384;28;20220;-47
2023/04/28 01:25:42;;;;;;;2.03;1.83;;;20.40;51.20;;;;;;4981057;28;20058;-53
2023/04/28 01:28:08;;;;;;;2.40;1.98;;;20.30;51.30;;;;;;4984735;28;20034;-53
2023/04/28 01:30:34;;;;;;;2.45;2.13;;;20.30;51.50;;;;;;4985815;28;20050;-51
2023/04/28 01:33:00;;;;;;;2.47;1.90;;;20.20;51.50;;;;;;4989361;28;20042;-47
2023/04/28 01:35:26;;;;;;;2.85;1.73;;;20.10;51.70;;;;;;4989566;28;20040;-52
2023/04/28 01:37:51;;;;;;;2.30;2.00;;;20.10;51.80;;;;;;4988731;28;20058;-53
2023/04/28 01:40:17;;;;;;;2.88;1.90;;;20.10;52.00;;;;;;4983466;28;20399;-46
2023/04/28 01:42:42;;;;;;;1.80;1.70;;;20.00;52.10;;;;;;4988559;28;20034;-48
2023/04/28 01:45:08;;;;;;;2.85;2.03;;;20.00;52.20;;;;;;4982968;28;20042;-50
2023/04/28 01:47:34;;;;;;;2.85;2.00;;;19.90;52.40;;;;;;4986226;28;20030;-48
2023/04/28 01:50:00;;;;;;;2.83;2.30;;;19.90;52.60;;;;;;4987923;28;20034;-57
2023/04/28 01:55:47;;;;;;;2.97;2.05;;;19.80;52.80;;;;;;4984640;28;20048;-46
2023/04/28 01:58:13;;;;;;;1.77;1.60;;;19.70;52.70;;;;;;4985630;28;20101;-52
2023/04/28 02:00:38;;;;;;;2.60;1.75;;;19.70;52.90;;;;;;4983000;28;20034;-50
2023/04/28 02:03:04;;;;;;;3.00;2.05;;;19.70;52.90;;;;;;4989663;28;20026;-56
2023/04/28 02:05:30;;;;;;;2.50;1.95;;;19.60;52.90;;;;;;4989640;28;20034;-52
2023/04/28 02:07:55;;;;;;;2.28;2.05;;;19.60;52.90;;;;;;4984716;28;20489;-50
2023/04/28 02:10:21;;;;;;;2.15;1.90;;;19.60;53.00;;;;;;4987228;28;20503;-45
2023/04/28 02:12:46;;;;;;;2.13;1.80;;;19.60;53.10;;;;;;4986680;28;20071;-54
2023/04/28 02:15:12;;;;;;;2.22;2.03;;;19.60;53.10;;;;;;4985487;28;20038;-49
2023/04/28 02:17:38;;;;;;;5.00;1.88;;;19.50;53.10;;;;;;4982987;28;20031;-49
2023/04/28 02:20:05;;;;;;;3.20;2.15;;;19.50;53.20;;;;;;4985769;28;20031;-49
2023/04/28 02:22:30;;;;;;;2.15;1.88;;;19.50;53.10;;;;;;4982726;28;20053;-47
2023/04/28 02:24:56;;;;;;;3.28;1.85;;;19.40;53.10;;;;;;4983535;28;20026;-46
2023/04/28 02:27:21;;;;;;;2.65;2.28;;;19.40;53.10;;;;;;4986576;28;20039;-45
2023/04/28 02:29:47;;;;;;;2.78;2.05;;;19.40;53.20;;;;;;4986271;28;20716;-52
2023/04/28 02:32:13;;;;;;;3.05;2.22;;;19.40;53.20;;;;;;4990157;28;20041;-57
2023/04/28 02:34:38;;;;;;;2.85;2.47;;;19.30;53.20;;;;;;4993864;28;20408;-51
2023/04/28 02:37:04;;;;;;;2.65;2.15;;;19.30;53.30;;;;;;4991987;28;20036;-49
2023/04/28 02:39:30;;;;;;;3.58;2.30;;;19.30;53.30;;;;;;4988065;28;20038;-53
2023/04/28 02:41:55;;;;;;;2.33;2.13;;;19.30;53.30;;;;;;4990653;28;20029;-57
2023/04/28 02:44:21;;;;;;;2.15;1.92;;;19.20;53.30;;;;;;4988449;28;20026;-47
2023/04/28 02:46:46;;;;;;;2.67;2.28;;;19.30;53.30;;;;;;4985576;28;20720;-47
2023/04/28 02:49:12;;;;;;;4.28;2.78;;;19.20;53.30;;;;;;4986253;28;20498;-50
2023/04/28 02:51:38;;;;;;;3.90;2.38;;;19.20;53.30;;;;;;4984946;28;20034;-53
2023/04/28 02:54:04;;;;;;;2.65;2.30;;;19.20;53.30;;;;;;4993616;28;20035;-52
2023/04/28 02:56:30;;;;;;;2.20;1.90;;;19.10;53.30;;;;;;4988399;28;20034;-46
2023/04/28 02:58:55;;;;;;;2.28;2.08;;;19.10;53.30;;;;;;4989759;28;20026;-56
2023/04/28 03:01:21;;;;;;;2.70;2.35;;;19.10;53.30;;;;;;4991042;28;20030;-47
2023/04/28 03:03:47;;;;;;;2.38;2.05;;;19.10;53.40;;;;;;4989758;28;20034;-46
2023/04/28 03:06:12;;;;;;;2.20;1.98;;;19.10;53.40;;;;;;4990551;28;20065;-48
2023/04/28 03:08:38;;;;;;;2.80;2.15;;;19.10;53.50;;;;;;4987924;28;20034;-56
2023/04/28 03:11:03;;;;;;;2.75;2.08;;;19.00;53.50;;;;;;4987850;28;20517;-46
2023/04/28 03:13:29;;;;;;;2.92;2.63;;;19.00;53.50;;;;;;4986490;28;20039;-49
2023/04/28 03:15:55;;;;;;;3.40;2.25;;;19.00;53.60;;;;;;4988766;28;20054;-53
2023/04/28 03:18:21;;;;;;;2.47;2.28;;;18.90;53.60;;;;;;4985612;28;20715;-58
2023/04/28 03:20:47;;;;;;;2.67;2.25;;;18.90;53.70;;;;;;4984626;28;20026;-53
2023/04/28 03:23:12;;;;;;;3.00;2.47;;;18.90;53.80;;;;;;4987890;28;20188;-56
2023/04/28 03:25:38;;;;;;;2.38;2.15;;;18.90;53.80;;;;;;4987484;28;20045;-54
2023/04/28 03:28:04;;;;;;;2.92;2.53;;;18.90;53.80;;;;;;4989214;28;20034;-48
2023/04/28 03:30:29;;;;;;;2.35;2.13;;;18.80;53.90;;;;;;4989002;28;20034;-50
2023/04/28 03:32:55;;;;;;;2.92;2.20;;;18.80;53.90;;;;;;4985519;28;20038;-53
2023/04/28 03:35:20;;;;;;;2.85;2.03;;;18.80;53.90;;;;;;5019286;23;20048;-48
2023/04/28 03:37:46;;;;;;;2.85;2.05;;;18.80;54.00;;;;;;5028209;28;20041;-59
2023/04/28 03:40:12;;;;;;;2.33;1.88;;;18.80;54.00;;;;;;5028322;28;20049;-50
2023/04/28 03:42:37;;;;;;;2.72;2.47;;;18.70;53.90;;;;;;5014674;28;20042;-54
2023/04/28 03:45:03;;;;;;;4.25;3.05;;;18.70;53.90;;;;;;5018525;28;20390;-49
2023/04/28 03:47:28;;;;;;;4.43;2.20;;;18.70;54.00;;;;;;5017083;28;20143;-49
2023/04/28 03:49:54;;;;;;;2.08;1.90;;;18.70;54.00;;;;;;5016858;28;20040;-52
2023/04/28 03:52:20;;;;;;;2.53;2.33;;;18.70;54.10;;;;;;5017104;28;20401;-50
2023/04/28 03:54:45;;;;;;;3.50;2.65;;;18.70;54.10;;;;;;5013336;28;20116;-54
2023/04/28 03:57:11;;;;;;;3.28;2.50;;;18.70;54.10;;;;;;5013198;28;21088;-47
2023/04/28 03:59:37;;;;;;;4.50;2.55;;;18.70;54.10;;;;;;5010812;28;20037;-49
2023/04/28 04:02:02;;;;;;;3.38;2.50;;;18.60;54.10;;;;;;5009441;28;20085;-50
2023/04/28 04:04:28;;;;;;;2.53;2.33;;;18.60;54.80;;;;;;5014921;28;20042;-53
2023/04/28 04:06:53;;;;;;;2.65;2.03;;;18.60;54.10;;;;;;5013054;28;20563;-52
2023/04/28 04:09:19;;;;;;;5.57;2.60;;;18.60;54.10;;;;;;5009402;28;20041;-48
2023/04/28 04:11:44;;;;;;;3.65;2.30;;;18.60;54.10;;;;;;5016205;28;20065;-49
2023/04/28 04:14:10;;;;;;;3.15;2.40;;;18.60;54.10;;;;;;5017996;28;20026;-56
2023/04/28 04:16:36;;;;;;;3.22;2.20;;;18.60;54.10;;;;;;5020301;28;20052;-48
2023/04/28 04:19:01;;;;;;;2.47;2.13;;;18.80;53.80;;;;;;5015641;28;20526;-51
2023/04/28 04:21:27;;;;;;;3.13;2.20;;;19.10;53.50;;;;;;5014579;28;20033;-51
2023/04/28 04:23:53;;;;;;;3.47;2.00;;;19.40;52.70;;;;;;5012528;28;20028;-53
2023/04/28 04:26:18;;;;;;;2.05;1.75;;;19.80;52.00;;;;;;5013586;28;20125;-55
2023/04/28 04:28:44;;;;;;;3.35;1.88;;;20.10;51.30;;;;;;5008437;28;20114;-49
2023/04/28 04:31:09;;;;;;;2.28;1.98;;;20.40;51.10;;;;;;5011586;28;20447;-50
2023/04/28 04:33:36;;;;;;;2.53;1.48;;;20.60;50.50;;;;;;4993963;28;20512;-50
2023/04/28 04:36:03;;;;;;;2.38;1.80;;;20.90;50.30;;;;;;5012724;28;20030;-48
2023/04/28 04:38:29;;;;;;;4.32;2.55;;;21.00;49.90;;;;;;5015097;28;20469;-55
2023/04/28 04:40:55;;;;;;;4.97;3.17;;;21.10;49.70;;;;;;5017174;28;20033;-57
2023/04/28 04:43:20;;;;;;;5.13;3.65;;;21.20;49.60;;;;;;5016510;28;20629;-55
2023/04/28 04:45:46;;;;;;;6.28;3.85;;;21.30;49.50;;;;;;4998934;28;20422;-48
2023/04/28 04:48:12;;;;;;;7.95;5.28;;;21.40;49.50;;;;;;5014354;28;20061;-54
2023/04/28 04:50:38;;;;;;;7.25;4.82;;;21.40;49.50;;;;;;5014896;28;20038;-51
2023/04/28 04:53:03;;;;;;;6.97;4.68;;;21.30;49.70;;;;;;5013253;28;20038;-54
2023/04/28 04:55:29;;;;;;;7.13;5.05;;;21.30;49.90;;;;;;5010347;28;20041;-54
2023/04/28 04:57:55;;;;;;;7.47;4.70;;;21.20;50.00;;;;;;5009580;28;20029;-47
2023/04/28 05:00:20;;;;;;;7.50;4.90;;;21.10;50.20;;;;;;5012861;28;20072;-50
2023/04/28 05:02:46;;;;;;;7.72;5.05;;;21.00;50.40;;;;;;5012332;28;20087;-50
2023/04/28 05:05:11;;;;;;;6.88;5.22;;;21.00;50.70;;;;;;5011327;28;20111;-56
2023/04/28 05:07:37;;;;;;;8.68;5.93;;;20.90;50.80;;;;;;5012083;28;20067;-47
2023/04/28 05:10:03;;;;;;;8.45;6.25;;;20.80;51.00;;;;;;5017499;28;20044;-52
2023/04/28 05:12:28;;;;;;;10.63;6.50;;;20.70;51.20;;;;;;5014935;28;20045;-50
2023/04/28 05:14:54;;;;;;;9.80;7.15;;;20.60;51.50;;;;;;5017197;28;20033;-55
2023/04/28 05:17:19;;;;;;;11.00;7.05;;;20.60;51.70;;;;;;5015119;28;20041;-56
2023/04/28 05:19:45;;;;;;;11.02;7.15;;;20.50;51.90;;;;;;5013961;28;20612;-52
2023/04/28 05:22:11;;;;;;;9.68;7.15;;;20.40;52.00;;;;;;5012273;28;20045;-48
2023/04/28 05:24:36;;;;;;;14.90;7.40;;;20.30;52.10;;;;;;5010576;28;20037;-53
2023/04/28 05:27:02;;;;;;;10.73;7.72;;;20.30;52.30;;;;;;5010600;28;20037;-58
2023/04/28 05:29:28;;;;;;;10.35;7.20;;;20.30;52.40;;;;;;5007751;28;20564;-52
2023/04/28 05:31:53;;;;;;;10.95;7.30;;;20.20;52.50;;;;;;5014287;28;20021;-48
2023/04/28 05:34:19;;;;;;;9.70;7.03;;;20.10;52.60;;;;;;5016070;28;20044;-54
2023/04/28 05:36:44;;;;;;;10.55;7.07;;;20.10;52.80;;;;;;5012940;28;20128;-53
2023/04/28 05:39:10;;;;;;;13.35;8.10;;;20.00;52.90;;;;;;5016378;28;20032;-57
2023/04/28 05:41:35;;;;;;;11.25;7.43;;;20.00;53.00;;;;;;5014425;28;20033;-54
2023/04/28 05:44:01;;;;;;;10.30;7.90;;;20.00;53.10;;;;;;5013984;28;20495;-54
2023/04/28 05:46:27;;;;;;;11.95;7.25;;;19.90;53.00;;;;;;4998314;28;20038;-56
2023/04/28 05:48:53;;;;;;;10.75;7.45;;;19.90;53.10;;;;;;5013804;28;20423;-57
2023/04/28 05:51:19;;;;;;;12.82;8.45;;;19.90;53.20;;;;;;4994231;28;20032;-50
2023/04/28 05:53:47;;;;;;;15.43;9.30;;;19.80;53.20;;;;;;5009886;28;20033;-50
2023/04/28 05:56:14;;;;;;;17.50;9.30;;;19.80;53.30;;;;;;5011101;28;20029;-55
2023/04/28 05:58:39;;;;;;;23.50;10.82;;;19.80;53.40;;;;;;5008391;28;20163;-55
2023/04/28 06:01:05;;;;;;;18.88;10.10;;;19.80;53.50;;;;;;5010418;28;20041;-52
2023/04/28 06:03:31;;;;;;;19.83;11.00;;;19.80;53.60;;;;;;5007836;28;20074;-53
2023/04/28 06:05:56;;;;;;;28.60;12.43;;;19.70;53.60;;;;;;5019234;28;20036;-47
2023/04/28 06:08:22;;;;;;;22.52;11.38;;;19.70;53.70;;;;;;5018525;28;20029;-53
2023/04/28 06:10:47;;;;;;;24.13;11.73;;;19.70;53.80;;;;;;5019006;28;20038;-54
2023/04/28 06:13:13;;;;;;;26.75;12.20;;;19.60;53.80;;;;;;5019097;28;20078;-50
2023/04/28 06:15:38;;;;;;;23.67;11.10;;;19.60;53.90;;;;;;5018329;28;20669;-49
2023/04/28 06:18:06;;;;;;;21.88;10.40;;;19.60;54.00;;;;;;5016492;28;20125;-56
2023/04/28 06:20:31;;;;;;;24.33;11.25;;;19.60;54.00;;;;;;5015333;28;20037;-59
2023/04/28 06:22:57;;;;;;;22.88;9.73;;;19.60;54.10;;;;;;5014935;28;20111;-49
2023/04/28 06:25:22;;;;;;;22.83;10.07;;;19.60;54.20;;;;;;5013675;28;20036;-54
2023/04/28 06:27:48;;;;;;;25.02;10.23;;;19.50;54.20;;;;;;5015843;28;20026;-57
2023/04/28 06:30:19;;;;;;;20.95;9.50;;;19.50;54.20;;;;;;5011620;28;20026;-49
2023/04/28 06:32:44;;;;;;;21.17;9.10;;;19.40;54.20;;;;;;5013712;28;20519;-49
2023/04/28 06:35:10;;;;;;;17.13;9.90;;;19.40;54.30;;;;;;5020066;28;20033;-55
2023/04/28 06:37:35;;;;;;;20.10;8.98;;;19.40;54.40;;;;;;5017071;28;20660;-48
2023/04/28 06:40:01;;;;;;;19.00;9.25;;;19.40;54.40;;;;;;5017511;28;20034;-54
2023/04/28 06:42:26;;;;;;;17.48;8.40;;;19.40;54.50;;;;;;4998539;28;20036;-53
2023/04/28 06:44:52;;;;;;;18.33;7.90;;;19.40;54.50;;;;;;5009601;28;20076;-52
2023/04/28 06:47:17;;;;;;;15.30;7.93;;;19.30;54.50;;;;;;5017484;28;20029;-49
2023/04/28 06:49:44;;;;;;;11.80;7.07;;;19.30;54.60;;;;;;5013740;28;20066;-57
2023/04/28 06:52:10;;;;;;;18.65;8.20;;;19.30;54.60;;;;;;5014028;28;20125;-51
2023/04/28 06:54:37;;;;;;;17.85;7.40;;;19.30;54.70;;;;;;5007510;28;20125;-52
2023/04/28 06:57:02;;;;;;;14.38;7.20;;;19.30;54.80;;;;;;5018795;28;20057;-51
2023/04/28 06:59:28;;;;;;;17.67;8.00;;;19.30;55.00;;;;;;5009156;28;20061;-51
2023/04/28 07:01:53;;;;;;;13.27;7.13;;;19.30;55.30;;;;;;5018826;28;20770;-57
2023/04/28 07:04:19;;;;;;;16.63;7.28;;;19.30;55.20;;;;;;5019447;28;20133;-56
2023/04/28 07:06:44;;;;;;;12.57;6.03;;;19.30;55.10;;;;;;5017520;28;20517;-58
2023/04/28 07:09:10;;;;;;;13.75;6.20;;;19.30;55.10;;;;;;5021102;28;20025;-52
2023/04/28 07:11:35;;;;;;;14.18;7.05;;;19.30;55.10;;;;;;5017802;28;20040;-57
2023/04/28 07:14:01;;;;;;;13.20;7.13;;;19.30;55.00;;;;;;4991419;28;20037;-56
2023/04/28 07:16:27;;;;;;;11.00;5.75;;;19.30;55.00;;;;;;5003243;28;20455;-56
2023/04/28 07:18:52;;;;;;;10.23;5.55;;;19.30;55.00;;;;;;5012856;28;20036;-54
2023/04/28 07:21:18;;;;;;;13.25;5.97;;;19.30;55.00;;;;;;5013147;28;20449;-50
2023/04/28 07:23:44;;;;;;;10.98;6.80;;;19.30;55.00;;;;;;5012455;28;20069;-57
2023/04/28 07:26:10;;;;;;;15.00;5.15;;;19.30;55.10;;;;;;5014321;28;20108;-56
2023/04/28 07:28:35;;;;;;;8.57;4.97;;;19.20;55.10;;;;;;5007553;28;20521;-54
2023/04/28 07:31:01;;;;;;;14.27;5.38;;;19.20;55.50;;;;;;5020488;28;20033;-60
2023/04/28 07:33:27;;;;;;;12.38;5.40;;;19.20;56.10;;;;;;5018037;28;20029;-56
2023/04/28 07:35:52;;;;;;;9.32;4.75;;;19.20;56.70;;;;;;5017584;28;20380;-48
2023/04/28 07:38:19;;;;;;;8.88;4.95;;;19.20;56.60;;;;;;5015011;28;20060;-51
2023/04/28 07:40:45;;;;;;;8.55;5.15;;;19.20;56.60;;;;;;5016884;28;20402;-56
2023/04/28 07:43:10;;;;;;;7.13;4.45;;;19.20;56.60;;;;;;5015020;28;20026;-52
2023/04/28 07:45:38;;;;;;;7.57;4.40;;;19.20;56.50;;;;;;5017452;28;20037;-55
2023/04/28 07:48:03;;;;;;;9.13;5.20;;;19.20;56.50;;;;;;5012345;28;20041;-51
2023/04/28 07:50:29;;;;;;;8.40;4.47;;;19.20;56.60;;;;;;5011403;28;20037;-54
2023/04/28 07:52:54;;;;;;;9.88;4.90;;;19.20;56.50;;;;;;5014934;28;20122;-49
2023/04/28 07:55:20;;;;;;;8.02;5.13;;;19.20;56.50;;;;;;5012254;28;20487;-52
2023/04/28 07:57:45;;;;;;;8.63;5.03;;;19.20;56.50;;;;;;5015181;28;20045;-57
2023/04/28 08:00:12;;;;;;;7.63;4.15;;;19.20;56.50;;;;;;5019755;28;20033;-55
2023/04/28 08:02:37;;;;;;;13.02;4.90;;;19.20;56.50;;;;;;5018268;28;20045;-58
2023/04/28 08:05:03;;;;;;;7.82;4.43;;;19.20;56.60;;;;;;5018103;28;20040;-50
2023/04/28 08:07:28;;;;;;;8.77;4.47;;;19.20;56.60;;;;;;5005395;28;20068;-53
2023/04/28 08:09:54;;;;;;;8.32;4.07;;;19.30;56.60;;;;;;5008098;28;20041;-52
2023/04/28 08:12:20;;;;;;;7.55;4.13;;;19.20;56.50;;;;;;4996087;28;20117;-58
2023/04/28 08:14:47;;;;;;;5.97;4.13;;;19.30;56.50;;;;;;4994752;28;20029;-53
2023/04/28 08:17:12;;;;;;;6.05;3.67;;;19.30;56.40;;;;;;4996116;28;20034;-54
2023/04/28 08:19:38;;;;;;;7.15;4.05;;;19.20;56.30;;;;;;4990878;28;20124;-52
2023/04/28 08:22:05;;;;;;;7.50;3.35;;;19.20;56.10;;;;;;4992615;28;20022;-60
2023/04/28 08:24:33;;;;;;;5.72;3.83;;;19.30;56.20;;;;;;4976377;28;20535;-54
2023/04/28 08:27:01;;;;;;;8.82;4.38;;;19.20;56.10;;;;;;4991269;28;20117;-51
2023/04/28 08:29:28;;;;;;;6.63;3.63;;;19.20;56.00;;;;;;5012724;28;20132;-52
2023/04/28 08:31:54;;;;;;;6.07;3.80;;;19.20;56.00;;;;;;5015764;28;20025;-54
2023/04/28 08:34:19;;;;;;;5.13;3.13;;;19.20;56.00;;;;;;5015362;28;20491;-52
2023/04/28 08:36:45;;;;;;;7.55;3.20;;;19.20;55.90;;;;;;5013075;28;20029;-57
2023/04/28 08:39:10;;;;;;;8.10;4.03;;;19.20;55.90;;;;;;5014387;28;20032;-51
2023/04/28 08:41:40;;;;;;;8.10;3.63;;;19.20;55.90;;;;;;5013749;28;20816;-50
2023/04/28 08:44:09;;;;;;;7.78;3.78;;;19.20;55.80;;;;;;4995333;28;20065;-51
2023/04/28 08:46:35;;;;;;;7.25;3.47;;;19.20;55.80;;;;;;5011878;28;20025;-52
2023/04/28 08:49:03;;;;;;;7.10;3.40;;;19.20;55.80;;;;;;5011653;28;20670;-55
2023/04/28 08:51:42;;;;;;;4.40;2.67;;;19.20;55.80;;;;;;4992905;28;20046;-51
2023/04/28 08:54:09;;;;;;;7.45;3.40;;;19.10;55.70;;;;;;5010150;28;20033;-49
2023/04/28 08:56:35;;;;;;;5.95;3.05;;;19.10;55.70;;;;;;5013312;28;20446;-55
2023/04/28 08:59:03;;;;;;;7.55;3.35;;;19.10;55.70;;;;;;5015644;28;20041;-49
2023/04/28 09:01:29;;;;;;;5.95;2.85;;;19.10;55.70;;;;;;5016923;28;20037;-49
2023/04/28 09:03:55;;;;;;;9.60;3.50;;;19.10;55.70;;;;;;5014297;28;20168;-49
2023/04/28 09:06:21;;;;;;;4.53;2.92;;;19.10;55.60;;;;;;5014647;28;20505;-51
2023/04/28 09:08:47;;;;;;;4.82;3.60;;;19.10;55.60;;;;;;5014274;28;20638;-47
2023/04/28 09:11:13;;;;;;;3.65;2.67;;;19.10;55.60;;;;;;5015165;28;20045;-53
2023/04/28 09:13:40;;;;;;;5.30;3.10;;;19.10;55.60;;;;;;5014934;28;20033;-47
2023/04/28 09:16:06;;;;;;;4.75;3.25;;;19.00;55.50;;;;;;5011120;28;20040;-51
2023/04/28 09:18:32;;;;;;;4.70;3.28;;;19.00;55.50;;;;;;5011511;28;20052;-52
2023/04/28 09:21:10;;;;;;;4.32;3.05;;;19.00;55.50;;;;;;5000095;28;20414;-50
2023/04/28 09:23:49;;;;;;;5.05;2.95;;;19.00;55.60;;;;;;4998037;28;20365;-52
2023/04/28 09:26:15;;;;;;;5.13;2.90;;;19.00;55.50;;;;;;4997610;28;20041;-55
2023/04/28 09:28:40;;;;;;;4.28;2.70;;;19.00;55.50;;;;;;4992499;28;20034;-49
2023/04/28 09:31:21;;;;;;;4.47;2.72;;;19.00;55.50;;;;;;5001284;28;20106;-47
2023/04/28 09:33:59;;;;;;;3.63;2.70;;;19.00;55.60;;;;;;5002928;28;20083;-56
2023/04/28 09:36:29;;;;;;;4.40;2.53;;;19.00;55.50;;;;;;5009684;28;20037;-54
2023/04/28 09:38:57;;;;;;;4.85;3.00;;;19.00;55.50;;;;;;5002382;28;20030;-55
2023/04/28 09:41:35;;;;;;;4.55;2.60;;;18.90;55.40;;;;;;5014006;28;20125;-55
2023/04/28 09:44:17;;;;;;;4.53;2.92;;;19.00;55.50;;;;;;5004938;28;20036;-54
2023/04/28 09:46:44;;;;;;;4.65;2.70;;;18.90;55.40;;;;;;4999766;28;20034;-53
2023/04/28 09:49:11;;;;;;;4.82;3.22;;;18.90;55.50;;;;;;5003700;28;20038;-50
2023/04/28 09:51:38;;;;;;;3.00;2.38;;;18.90;55.50;;;;;;5000082;28;20688;-53
2023/04/28 09:54:04;;;;;;;8.70;2.85;;;18.90;55.50;;;;;;4994353;28;20041;-50
2023/04/28 09:56:32;;;;;;;4.40;2.83;;;18.90;55.50;;;;;;4996095;28;20041;-51
2023/04/28 09:58:58;;;;;;;3.40;2.80;;;19.00;55.50;;;;;;4996933;28;20022;-52
2023/04/28 10:01:31;;;;;;;3.75;2.60;;;19.10;55.30;;;;;;4994760;28;20041;-50
2023/04/28 10:03:58;;;;;;;6.28;2.63;;;19.20;54.90;;;;;;5003525;28;20399;-48
2023/04/28 10:06:24;;;;;;;7.53;2.90;;;19.40;54.70;;;;;;5002899;28;21067;-54
2023/04/28 10:08:50;;;;;;;6.18;2.83;;;19.60;54.20;;;;;;4975334;28;20329;-52
2023/04/28 10:11:16;;;;;;;4.35;2.60;;;19.80;53.70;;;;;;4976302;28;20266;-52
2023/04/28 10:13:43;;;;;;;5.50;2.45;;;20.00;53.70;;;;;;5003731;28;20564;-52
2023/04/28 10:16:10;;;;;;;3.38;2.47;;;20.10;52.80;;;;;;5006252;28;20502;-57
2023/04/28 10:18:36;;;;;;;3.65;2.53;;;20.30;52.50;;;;;;5001175;28;20042;-55
2023/04/28 10:21:04;;;;;;;5.82;2.00;;;20.50;52.20;;;;;;4998122;28;20054;-57
2023/04/28 10:23:55;;;;;;;3.95;2.10;;;20.60;52.00;;;;;;5014046;28;20049;-55
2023/04/28 10:26:26;;;;;;;2.83;2.20;;;20.70;51.80;;;;;;4994735;28;20121;-57
2023/04/28 10:28:52;;;;;;;6.10;2.20;;;20.80;51.50;;;;;;4991591;28;20091;-49
2023/04/28 10:31:22;;;;;;;3.47;2.17;;;20.80;51.50;;;;;;4993328;28;20026;-50
2023/04/28 10:33:48;;;;;;;3.80;2.33;;;20.90;51.30;;;;;;5005712;28;20450;-58
2023/04/28 10:36:46;;;;;;;2.20;1.95;;;21.00;51.30;;;;;;5011053;28;20446;-52
2023/04/28 10:39:11;;;;;;;4.05;1.83;;;21.00;51.30;;;;;;5010975;28;20055;-51
2023/04/28 10:41:37;;;;;;;3.88;2.00;;;20.90;51.30;;;;;;5000407;28;20532;-55
2023/04/28 10:44:27;;;;;;;4.85;2.78;;;20.90;51.50;;;;;;5000684;28;20072;-54
2023/04/28 10:47:08;;;;;;;4.10;2.17;;;20.80;51.60;;;;;;5009155;28;20574;-54
2023/04/28 10:49:58;;;;;;;5.03;2.22;;;20.70;51.80;;;;;;5008500;28;20041;-50
2023/04/28 10:52:37;;;;;;;3.00;2.30;;;20.60;52.10;;;;;;5014354;28;20747;-53
2023/04/28 10:55:30;;;;;;;3.70;2.28;;;20.60;52.40;;;;;;4987687;28;20045;-58
2023/04/28 10:58:28;;;;;;;4.50;1.80;;;20.50;52.50;;;;;;4995995;28;20630;-52
2023/04/28 11:00:53;;;;;;;3.90;2.50;;;20.40;52.80;;;;;;4990190;28;20117;-56
2023/04/28 11:03:47;;;;;;;2.92;1.73;;;20.40;53.00;;;;;;5003683;28;20109;-55
2023/04/28 11:06:34;;;;;;;3.25;2.05;;;20.30;53.10;;;;;;5014816;28;20084;-57
2023/04/28 11:09:20;;;;;;;2.65;1.73;;;20.20;53.20;;;;;;5015078;28;20025;-57
2023/04/28 11:12:04;;;;;;;5.50;2.20;;;20.20;53.30;;;;;;5012667;28;20542;-59
2023/04/28 11:14:35;;;;;;;2.43;2.00;;;20.10;53.50;;;;;;5008150;28;20859;-56
2023/04/28 11:17:07;;;;;;;3.80;2.28;;;20.10;54.20;;;;;;5014944;28;20041;-56
2023/04/28 11:19:38;;;;;;;3.28;2.33;;;20.10;53.60;;;;;;5009979;28;20061;-52
2023/04/28 11:22:10;;;;;;;4.10;1.88;;;20.00;53.70;;;;;;5010723;28;20157;-50
2023/04/28 11:24:36;;;;;;;4.47;2.33;;;20.00;53.80;;;;;;5009404;28;20068;-56
2023/04/28 11:27:02;;;;;;;2.70;1.98;;;19.90;53.90;;;;;;5016073;28;20041;-57
2023/04/28 11:29:38;;;;;;;3.85;1.83;;;19.90;54.00;;;;;;5015130;28;20539;-52
2023/04/28 11:32:06;;;;;;;4.88;2.35;;;19.90;54.10;;;;;;5015589;28;20469;-54
2023/04/28 11:34:31;;;;;;;2.20;1.70;;;19.80;54.10;;;;;;4990016;28;20045;-50
2023/04/28 11:36:57;;;;;;;2.58;1.80;;;19.80;54.20;;;;;;5015190;28;20029;-49
2023/04/28 11:39:29;;;;;;;3.80;2.03;;;19.80;54.30;;;;;;5011452;28;20490;-54
2023/04/28 11:41:56;;;;;;;3.53;1.75;;;19.80;54.30;;;;;;5014677;28;20418;-55
2023/04/28 11:44:24;;;;;;;2.40;1.80;;;19.80;54.40;;;;;;5001668;28;20517;-53
2023/04/28 11:47:01;;;;;;;2.97;1.98;;;19.70;54.40;;;;;;4997259;28;20030;-55
2023/04/28 11:49:32;;;;;;;2.47;1.98;;;19.70;54.50;;;;;;5015962;28;20041;-55
2023/04/28 11:52:04;;;;;;;3.85;1.75;;;19.70;54.50;;;;;;5015952;28;20029;-48
2023/04/28 11:54:31;;;;;;;3.45;1.98;;;19.60;54.50;;;;;;5016128;28;20112;-54
2023/04/28 11:56:57;;;;;;;3.15;2.22;;;19.60;54.60;;;;;;5014260;28;20771;-50
2023/04/28 11:59:31;;;;;;;2.58;1.85;;;19.60;54.60;;;;;;5014283;28;20396;-52
2023/04/28 12:02:02;;;;;;;4.68;1.73;;;19.60;54.70;;;;;;5014387;28;20103;-52
2023/04/28 12:04:37;;;;;;;2.67;1.65;;;19.60;54.70;;;;;;5016077;28;20439;-56
2023/04/28 12:07:09;;;;;;;3.40;2.03;;;19.60;54.80;;;;;;5014764;28;20147;-48
2023/04/28 12:09:35;;;;;;;2.65;1.80;;;19.50;54.80;;;;;;5011859;28;20033;-50
2023/04/28 12:12:03;;;;;;;3.35;1.85;;;19.50;54.90;;;;;;5005453;28;20572;-48
2023/04/28 12:14:30;;;;;;;2.30;1.92;;;19.50;55.00;;;;;;5008708;28;20036;-48
2023/04/28 12:16:57;;;;;;;3.80;1.90;;;19.50;55.00;;;;;;5015142;28;20038;-53
2023/04/28 12:19:23;;;;;;;8.27;1.70;;;19.50;55.00;;;;;;5017245;28;20497;-49
2023/04/28 12:22:21;;;;;;;1.83;1.60;;;19.50;55.10;;;;;;5014831;28;20026;-51
2023/04/28 12:25:02;;;;;;;2.72;1.65;;;19.40;55.70;;;;;;4953250;28;20459;-54
2023/04/28 12:27:28;;;;;;;4.90;2.00;;;19.40;55.20;;;;;;5013221;28;20036;-57
2023/04/28 12:29:55;;;;;;;2.50;1.60;;;19.40;55.30;;;;;;5006567;28;20029;-48
2023/04/28 12:32:40;;;;;;;1.88;1.60;;;19.40;55.40;;;;;;5009011;28;20045;-54
2023/04/28 12:35:06;;;;;;;2.17;1.40;;;19.40;55.50;;;;;;5014206;28;20045;-51
2023/04/28 12:37:32;;;;;;;3.05;1.48;;;19.40;55.60;;;;;;5016058;28;20056;-58
2023/04/28 12:39:58;;;;;;;1.88;1.52;;;19.40;55.70;;;;;;5000391;28;20523;-52
2023/04/28 12:42:23;;;;;;;3.40;1.80;;;19.40;55.80;;;;;;5016526;28;20040;-52
2023/04/28 12:44:49;;;;;;;2.92;1.35;;;19.40;55.90;;;;;;5014742;28;20041;-49
2023/04/28 12:47:17;;;;;;;3.90;1.83;;;19.40;55.90;;;;;;5015876;28;20028;-57
2023/04/28 12:49:43;;;;;;;2.22;1.83;;;19.40;56.10;;;;;;5014185;28;20022;-58